Linzy — SIRU — position and weather

sailwx.info

Track history (hours):
 
Tides and Currents Weather Stations Pressure Air Temp Water Temp Dewpoint Dewpoint Depression Visibility Wind Speed Wind Dir Waves Ship Positions

Linzy

Last reported at 2016-May-27 21:29 UTC. Time now 2016-May-27 22:06 UTC.
Position N 55°33' E 014°22'.

Length 15 m.

Type: Fishing. MMSI: 265507290.

Date/timePositionNaut miles runAvg speedWind from/ knotsBaromVisibWave heightAir tempDewpointWater temp
2016-May-27 21:29N 55°33' E 014°22'0 0.0
2016-May-27 20:29N 55°33' E 014°22'0 0.0
2016-May-27 19:29N 55°33' E 014°22'0 0.0
2016-May-27 18:29N 55°33' E 014°22'0 0.0
2016-May-27 17:29N 55°33' E 014°22'0 0.0
2016-May-27 16:29N 55°33' E 014°22'0 0.0
2016-May-27 15:29N 55°33' E 014°22'0 0.0
2016-May-27 14:23N 55°33' E 014°22'0 0.0
2016-May-27 13:29N 55°33' E 014°22'0 0.0
2016-May-27 12:29N 55°33' E 014°22'0 0.0
2016-May-27 11:29N 55°33' E 014°22'0 0.0
2016-May-27 10:29N 55°33' E 014°22'0 0.0
2016-May-27 09:29N 55°33' E 014°22'0 0.0
2016-May-27 08:29N 55°33' E 014°22'0 0.0
2016-May-27 07:11N 55°33' E 014°22'0 0.0
2016-May-27 06:29N 55°33' E 014°22'0 0.0
2016-May-27 05:29N 55°33' E 014°22'0 0.0
2016-May-27 04:29N 55°33' E 014°22'0 0.0
2016-May-27 03:17N 55°33' E 014°22'0 0.0
2016-May-27 02:17N 55°33' E 014°22'0 0.0
2016-May-27 01:29N 55°33' E 014°22'0 0.0
2016-May-27 00:29N 55°33' E 014°22'0 0.0
2016-May-26 23:29N 55°33' E 014°22'0 0.0
2016-May-26 22:23N 55°33' E 014°22'0 0.0
2016-May-26 21:29N 55°33' E 014°22'0 0.0
2016-May-26 20:29N 55°33' E 014°22'0 0.0
2016-May-26 19:29N 55°33' E 014°22'0 0.0
2016-May-26 18:29N 55°33' E 014°22'0 0.0
2016-May-26 17:29N 55°33' E 014°22'0 0.2
2016-May-26 16:32N 55°34' E 014°22'5 5.1
2016-May-26 15:31N 55°30' E 014°29'4 4.2
2016-May-26 14:33N 55°27' E 014°34'2 2.0
2016-May-26 13:33N 55°28' E 014°37'3 2.7
2016-May-26 12:33N 55°29' E 014°41'3 2.6
2016-May-26 11:33N 55°30' E 014°46'2 1.8
2016-May-26 10:33N 55°29' E 014°43'3 2.9
2016-May-26 09:33N 55°28' E 014°38'1 0.8
2016-May-26 08:33N 55°28' E 014°37'3 2.3
2016-May-26 07:27N 55°29' E 014°41'2 2.7
2016-May-26 06:33N 55°30' E 014°45'2 1.8
2016-May-26 05:33N 55°29' E 014°42'3 2.9
2016-May-26 04:33N 55°28' E 014°37'3 2.8
2016-May-26 03:33N 55°28' E 014°32'6 6.4
2016-May-26 02:33N 55°32' E 014°24'2 1.7
2016-May-26 01:28N 55°33' E 014°22'0 0.0
2016-May-26 00:22N 55°33' E 014°22'0 0.0
2016-May-25 23:22N 55°33' E 014°22'0 0.0
2016-May-25 22:04N 55°33' E 014°22'0 0.0
2016-May-25 21:22N 55°33' E 014°22'0 0.0
2016-May-25 20:28N 55°33' E 014°22'0 0.0
2016-May-25 19:16N 55°33' E 014°22'0 0.0
2016-May-25 18:28N 55°33' E 014°22'0 0.0
2016-May-25 16:16N 55°33' E 014°22'0 0.0
2016-May-25 15:22N 55°33' E 014°22'0 0.0
2016-May-25 14:28N 55°33' E 014°22'0 0.0
2016-May-25 13:22N 55°33' E 014°22'0 0.0
2016-May-25 12:28N 55°33' E 014°22'0 0.0
2016-May-25 11:28N 55°33' E 014°22'0 0.0
2016-May-25 10:16N 55°33' E 014°22'0 0.0
2016-May-25 09:28N 55°33' E 014°22'0 0.0
2016-May-25 08:28N 55°33' E 014°22'0 0.0
2016-May-25 07:28N 55°33' E 014°22'0 0.0
2016-May-25 06:28N 55°33' E 014°22'0 0.0
2016-May-25 05:28N 55°33' E 014°22'0 0.0
2016-May-25 04:22N 55°33' E 014°22'0 0.0
2016-May-25 03:28N 55°33' E 014°22'0 0.0
2016-May-25 02:22N 55°33' E 014°22'0 0.0
2016-May-25 01:28N 55°33' E 014°22'0 0.0
2016-May-25 00:28N 55°33' E 014°22'0 0.0
2016-May-24 23:28N 55°33' E 014°22'0 0.0
2016-May-24 22:28N 55°33' E 014°22'0 0.0
2016-May-24 21:28N 55°33' E 014°22'0 0.0
2016-May-24 20:28N 55°33' E 014°22'0 0.0
2016-May-24 19:28N 55°33' E 014°22'0 0.0
2016-May-24 18:28N 55°33' E 014°22'0 0.0
2016-May-24 17:28N 55°33' E 014°22'0 0.0
2016-May-24 16:28N 55°33' E 014°22'0 0.0
2016-May-24 15:28N 55°33' E 014°22'0 0.0
2016-May-24 14:28N 55°33' E 014°22'0 0.0
2016-May-24 13:30N 55°33' E 014°22'0 0.0
2016-May-24 12:28N 55°33' E 014°22'0 0.0
2016-May-24 11:22N 55°33' E 014°22'0 0.0
2016-May-24 10:28N 55°33' E 014°22'0 0.0
2016-May-24 09:28N 55°33' E 014°22'0 0.0
2016-May-24 08:28N 55°33' E 014°22'0 0.0
2016-May-24 07:28N 55°33' E 014°22'0 0.0
2016-May-24 06:28N 55°33' E 014°22'0 0.0
2016-May-24 05:28N 55°33' E 014°22'0 0.0
2016-May-24 04:28N 55°33' E 014°22'0 0.0
2016-May-24 03:28N 55°33' E 014°22'0 0.0
2016-May-24 02:28N 55°33' E 014°22'0 0.0
2016-May-24 01:28N 55°33' E 014°22'0 0.0
2016-May-24 00:28N 55°33' E 014°22'0 0.0
2016-May-23 23:28N 55°33' E 014°22'0 0.0
2016-May-23 22:28N 55°33' E 014°22'0 0.0
2016-May-23 21:28N 55°33' E 014°22'0 0.0
2016-May-23 20:28N 55°33' E 014°22'0 0.0
2016-May-23 19:22N 55°33' E 014°22'0 0.0
2016-May-23 18:28N 55°33' E 014°22'0 0.0
2016-May-23 17:28N 55°33' E 014°22'0 0.0
2016-May-23 16:28N 55°33' E 014°22'0 0.0
2016-May-23 15:28N 55°33' E 014°22'3 3.0
2016-May-23 14:32N 55°34' E 014°26'7 7.0
2016-May-23 13:33N 55°31' E 014°38'6 5.6
2016-May-23 12:32N 55°29' E 014°47'2 2.2
2016-May-23 11:33N 55°29' E 014°43'1 0.6
2016-May-23 10:33N 55°29' E 014°44'3 2.7
2016-May-23 09:32N 55°29' E 014°49'3 2.8
2016-May-23 08:32N 55°28' E 014°53'1 1.1
2016-May-23 07:10N 55°28' E 014°51'2 2.8
2016-May-23 06:34N 55°28' E 014°48'3 2.8
2016-May-23 05:31N 55°28' E 014°43'3 2.8
2016-May-23 04:33N 55°27' E 014°38'3 3.0
2016-May-23 03:33N 55°28' E 014°33'8 7.5
2016-May-23 02:33N 55°33' E 014°23'1 0.9
2016-May-23 01:33N 55°33' E 014°22'0 0.0
2016-May-23 00:33N 55°33' E 014°22'0 0.0
2016-May-22 23:33N 55°33' E 014°22'0 0.0
2016-May-22 22:33N 55°33' E 014°22'0 0.0
2016-May-22 21:21N 55°33' E 014°22'0 0.0
2016-May-22 20:33N 55°33' E 014°22'0 0.0
2016-May-22 19:33N 55°33' E 014°22'0 0.0
2016-May-22 18:33N 55°33' E 014°22'0 0.0
2016-May-22 17:27N 55°33' E 014°22'0 0.0
2016-May-22 16:33N 55°33' E 014°22'0 0.0
2016-May-22 15:15N 55°33' E 014°22'0 0.0
2016-May-22 14:33N 55°33' E 014°22'0 0.0
2016-May-22 13:33N 55°33' E 014°22'0 0.0
2016-May-22 12:33N 55°33' E 014°22'0 0.0
2016-May-22 11:33N 55°33' E 014°22'0 0.0
2016-May-22 10:33N 55°33' E 014°22'0 0.0
2016-May-22 09:33N 55°33' E 014°22'0 0.0
2016-May-22 08:33N 55°33' E 014°22'0 0.0
2016-May-22 07:33N 55°33' E 014°22'0 0.0
2016-May-22 06:33N 55°33' E 014°22'0 0.0
2016-May-22 05:33N 55°33' E 014°22'0 0.0
2016-May-22 04:33N 55°33' E 014°22'0 0.0
2016-May-22 03:33N 55°33' E 014°22'0 0.0
2016-May-22 02:33N 55°33' E 014°22'0 0.0
2016-May-22 01:21N 55°33' E 014°22'0 0.0
2016-May-22 00:21N 55°33' E 014°22'0 0.0
2016-May-21 23:33N 55°33' E 014°22'0 0.0
2016-May-21 22:33N 55°33' E 014°22'0 0.0
2016-May-21 21:33N 55°33' E 014°22'0 0.0
2016-May-21 20:33N 55°33' E 014°22'0 0.0
2016-May-21 19:33N 55°33' E 014°22'0 0.0
2016-May-21 18:33N 55°33' E 014°22'0 0.0
2016-May-21 17:33N 55°33' E 014°22'0 0.0
2016-May-21 16:33N 55°33' E 014°22'0 0.0
2016-May-21 15:33N 55°33' E 014°22'0 0.0
2016-May-21 14:09N 55°33' E 014°22'0 0.0
2016-May-21 13:33N 55°33' E 014°22'0 0.0
2016-May-21 12:27N 55°33' E 014°22'0 0.0
2016-May-21 11:27N 55°33' E 014°22'0 0.0
2016-May-21 10:33N 55°33' E 014°22'0 0.0
2016-May-21 09:33N 55°33' E 014°22'0 0.0
2016-May-21 08:33N 55°33' E 014°22'0 0.0
2016-May-21 07:21N 55°33' E 014°22'0 0.0
2016-May-21 06:21N 55°33' E 014°22'0 0.0
2016-May-21 05:33N 55°33' E 014°22'0 0.0
2016-May-21 04:21N 55°33' E 014°22'0 0.0
2016-May-21 03:33N 55°33' E 014°22'0 0.0
2016-May-21 02:21N 55°33' E 014°22'0 0.0
2016-May-21 01:09N 55°33' E 014°22'0 0.0
2016-May-21 00:33N 55°33' E 014°22'0 0.0
2016-May-20 23:33N 55°33' E 014°22'0 0.0
2016-May-20 22:33N 55°33' E 014°22'0 0.0
2016-May-20 21:27N 55°33' E 014°22'0 0.0
2016-May-20 20:33N 55°33' E 014°22'0 0.0
2016-May-20 19:33N 55°33' E 014°22'0 0.0
2016-May-20 18:33N 55°33' E 014°22'0 0.0
2016-May-20 17:33N 55°33' E 014°22'0 0.0
2016-May-20 16:27N 55°33' E 014°22'0 0.0
2016-May-20 15:33N 55°33' E 014°22'0 0.0
2016-May-20 14:33N 55°33' E 014°22'0 0.0
2016-May-20 13:27N 55°33' E 014°22'0 0.0
2016-May-20 12:33N 55°33' E 014°22'0 0.0
2016-May-20 11:33N 55°33' E 014°22'0 0.0
2016-May-20 10:27N 55°33' E 014°22'0 0.0
2016-May-20 09:33N 55°33' E 014°22'0 0.0
2016-May-20 08:33N 55°33' E 014°22'0 0.0
2016-May-20 07:27N 55°33' E 014°22'0 0.0
2016-May-20 06:33N 55°33' E 014°22'0 0.0
2016-May-20 04:33N 55°33' E 014°22'0 0.0
2016-May-20 03:27N 55°33' E 014°22'0 0.0
2016-May-20 02:27N 55°33' E 014°22'0 0.0
2016-May-20 01:33N 55°33' E 014°22'0 0.0
2016-May-20 00:33N 55°33' E 014°22'0 0.0
2016-May-19 23:33N 55°33' E 014°22'0 0.0
2016-May-19 22:33N 55°33' E 014°22'0 0.0
2016-May-19 21:27N 55°33' E 014°22'0 0.0
2016-May-19 20:27N 55°33' E 014°22'0 0.0
2016-May-19 19:33N 55°33' E 014°22'0 0.0
2016-May-19 18:33N 55°33' E 014°22'2 1.7
2016-May-19 17:31N 55°33' E 014°25'4 4.5
2016-May-19 16:33N 55°30' E 014°31'5 4.7
2016-May-19 15:33N 55°27' E 014°37'2 1.9
2016-May-19 14:33N 55°28' E 014°40'3 2.8
2016-May-19 13:33N 55°29' E 014°44'1 1.3
2016-May-19 12:32N 55°28' E 014°46'3 2.8
2016-May-19 11:32N 55°28' E 014°42'3 2.8
2016-May-19 10:33N 55°27' E 014°37'3 2.7
2016-May-19 09:33N 55°26' E 014°33'2 1.8
2016-May-19 08:32N 55°25' E 014°35'3 2.9
2016-May-19 07:33N 55°25' E 014°41'3 2.7
2016-May-19 06:33N 55°25' E 014°45'2 2.2
2016-May-19 05:33N 55°26' E 014°42'3 3.0
2016-May-19 04:33N 55°26' E 014°37'5 4.7
2016-May-19 03:33N 55°28' E 014°29'7 6.2
2016-May-19 02:30N 55°33' E 014°22'0 0.0
2016-May-19 01:24N 55°33' E 014°22'0 0.0
2016-May-19 00:18N 55°33' E 014°22'0 0.0
2016-May-18 23:30N 55°33' E 014°22'0 0.0
2016-May-18 22:30N 55°33' E 014°22'0 0.0
2016-May-18 21:30N 55°33' E 014°22'0 0.0
2016-May-18 20:06N 55°33' E 014°22'0 0.0
2016-May-18 19:18N 55°33' E 014°22'0 0.0
2016-May-18 18:30N 55°33' E 014°22'0 0.0
2016-May-18 17:30N 55°33' E 014°22'0 0.0
2016-May-18 16:30N 55°33' E 014°22'0 0.0
2016-May-18 15:33N 55°33' E 014°22'0 0.0
2016-May-18 14:28N 55°33' E 014°22'0 0.0
2016-May-18 13:28N 55°33' E 014°22'0 0.0
2016-May-18 12:28N 55°33' E 014°22'0 0.0
2016-May-18 11:04N 55°33' E 014°22'0 0.0
2016-May-18 10:28N 55°33' E 014°22'0 0.0
2016-May-18 09:28N 55°33' E 014°22'0 0.0
2016-May-18 08:28N 55°33' E 014°22'0 0.0
2016-May-18 07:04N 55°33' E 014°22'0 0.0
2016-May-18 06:04N 55°33' E 014°22'0 0.0
2016-May-18 05:28N 55°33' E 014°22'0 0.0
2016-May-18 04:28N 55°33' E 014°22'0 0.0
2016-May-18 03:22N 55°33' E 014°22'0 0.0
2016-May-18 02:28N 55°33' E 014°22'0 0.0
2016-May-18 01:28N 55°33' E 014°22'0 0.0
2016-May-18 00:16N 55°33' E 014°22'0 0.0
2016-May-17 23:16N 55°33' E 014°22'0 0.0
2016-May-17 22:28N 55°33' E 014°22'  
Track history (hours):
 
Tides and Currents Weather Stations Pressure Air Temp Water Temp Dewpoint Dewpoint Depression Visibility Wind Speed Wind Dir Waves Ship Positions

Linzy

Last reported at 2016-May-27 21:29 UTC. Time now 2016-May-27 22:06 UTC.
Position N 55°33' E 014°22'.

Length 15 m.

Type: Fishing. MMSI: 265507290.

Date/timePositionNaut miles runAvg speedWind from/ knotsBaromVisibWave heightAir tempDewpointWater temp
2016-May-27 21:29N 55°33' E 014°22'0 0.0
2016-May-27 20:29N 55°33' E 014°22'0 0.0
2016-May-27 19:29N 55°33' E 014°22'0 0.0
2016-May-27 18:29N 55°33' E 014°22'0 0.0
2016-May-27 17:29N 55°33' E 014°22'0 0.0
2016-May-27 16:29N 55°33' E 014°22'0 0.0
2016-May-27 15:29N 55°33' E 014°22'0 0.0
2016-May-27 14:23N 55°33' E 014°22'0 0.0
2016-May-27 13:29N 55°33' E 014°22'0 0.0
2016-May-27 12:29N 55°33' E 014°22'0 0.0
2016-May-27 11:29N 55°33' E 014°22'0 0.0
2016-May-27 10:29N 55°33' E 014°22'0 0.0
2016-May-27 09:29N 55°33' E 014°22'0 0.0
2016-May-27 08:29N 55°33' E 014°22'0 0.0
2016-May-27 07:11N 55°33' E 014°22'0 0.0
2016-May-27 06:29N 55°33' E 014°22'0 0.0
2016-May-27 05:29N 55°33' E 014°22'0 0.0
2016-May-27 04:29N 55°33' E 014°22'0 0.0
2016-May-27 03:17N 55°33' E 014°22'0 0.0
2016-May-27 02:17N 55°33' E 014°22'0 0.0
2016-May-27 01:29N 55°33' E 014°22'0 0.0
2016-May-27 00:29N 55°33' E 014°22'0 0.0
2016-May-26 23:29N 55°33' E 014°22'0 0.0
2016-May-26 22:23N 55°33' E 014°22'0 0.0
2016-May-26 21:29N 55°33' E 014°22'0 0.0
2016-May-26 20:29N 55°33' E 014°22'0 0.0
2016-May-26 19:29N 55°33' E 014°22'0 0.0
2016-May-26 18:29N 55°33' E 014°22'0 0.0
2016-May-26 17:29N 55°33' E 014°22'0 0.2
2016-May-26 16:32N 55°34' E 014°22'5 5.1
2016-May-26 15:31N 55°30' E 014°29'4 4.2
2016-May-26 14:33N 55°27' E 014°34'2 2.0
2016-May-26 13:33N 55°28' E 014°37'3 2.7
2016-May-26 12:33N 55°29' E 014°41'3 2.6
2016-May-26 11:33N 55°30' E 014°46'2 1.8
2016-May-26 10:33N 55°29' E 014°43'3 2.9
2016-May-26 09:33N 55°28' E 014°38'1 0.8
2016-May-26 08:33N 55°28' E 014°37'3 2.3
2016-May-26 07:27N 55°29' E 014°41'2 2.7
2016-May-26 06:33N 55°30' E 014°45'2 1.8
2016-May-26 05:33N 55°29' E 014°42'3 2.9
2016-May-26 04:33N 55°28' E 014°37'3 2.8
2016-May-26 03:33N 55°28' E 014°32'6 6.4
2016-May-26 02:33N 55°32' E 014°24'2 1.7
2016-May-26 01:28N 55°33' E 014°22'0 0.0
2016-May-26 00:22N 55°33' E 014°22'0 0.0
2016-May-25 23:22N 55°33' E 014°22'0 0.0
2016-May-25 22:04N 55°33' E 014°22'0 0.0
2016-May-25 21:22N 55°33' E 014°22'0 0.0
2016-May-25 20:28N 55°33' E 014°22'0 0.0
2016-May-25 19:16N 55°33' E 014°22'0 0.0
2016-May-25 18:28N 55°33' E 014°22'0 0.0
2016-May-25 16:16N 55°33' E 014°22'0 0.0
2016-May-25 15:22N 55°33' E 014°22'0 0.0
2016-May-25 14:28N 55°33' E 014°22'0 0.0
2016-May-25 13:22N 55°33' E 014°22'0 0.0
2016-May-25 12:28N 55°33' E 014°22'0 0.0
2016-May-25 11:28N 55°33' E 014°22'0 0.0
2016-May-25 10:16N 55°33' E 014°22'0 0.0
2016-May-25 09:28N 55°33' E 014°22'0 0.0
2016-May-25 08:28N 55°33' E 014°22'0 0.0
2016-May-25 07:28N 55°33' E 014°22'0 0.0
2016-May-25 06:28N 55°33' E 014°22'0 0.0
2016-May-25 05:28N 55°33' E 014°22'0 0.0
2016-May-25 04:22N 55°33' E 014°22'0 0.0
2016-May-25 03:28N 55°33' E 014°22'0 0.0
2016-May-25 02:22N 55°33' E 014°22'0 0.0
2016-May-25 01:28N 55°33' E 014°22'0 0.0
2016-May-25 00:28N 55°33' E 014°22'0 0.0
2016-May-24 23:28N 55°33' E 014°22'0 0.0
2016-May-24 22:28N 55°33' E 014°22'0 0.0
2016-May-24 21:28N 55°33' E 014°22'0 0.0
2016-May-24 20:28N 55°33' E 014°22'0 0.0
2016-May-24 19:28N 55°33' E 014°22'0 0.0
2016-May-24 18:28N 55°33' E 014°22'0 0.0
2016-May-24 17:28N 55°33' E 014°22'0 0.0
2016-May-24 16:28N 55°33' E 014°22'0 0.0
2016-May-24 15:28N 55°33' E 014°22'0 0.0
2016-May-24 14:28N 55°33' E 014°22'0 0.0
2016-May-24 13:30N 55°33' E 014°22'0 0.0
2016-May-24 12:28N 55°33' E 014°22'0 0.0
2016-May-24 11:22N 55°33' E 014°22'0 0.0
2016-May-24 10:28N 55°33' E 014°22'0 0.0
2016-May-24 09:28N 55°33' E 014°22'0 0.0
2016-May-24 08:28N 55°33' E 014°22'0 0.0
2016-May-24 07:28N 55°33' E 014°22'0 0.0
2016-May-24 06:28N 55°33' E 014°22'0 0.0
2016-May-24 05:28N 55°33' E 014°22'0 0.0
2016-May-24 04:28N 55°33' E 014°22'0 0.0
2016-May-24 03:28N 55°33' E 014°22'0 0.0
2016-May-24 02:28N 55°33' E 014°22'0 0.0
2016-May-24 01:28N 55°33' E 014°22'0 0.0
2016-May-24 00:28N 55°33' E 014°22'0 0.0
2016-May-23 23:28N 55°33' E 014°22'0 0.0
2016-May-23 22:28N 55°33' E 014°22'0 0.0
2016-May-23 21:28N 55°33' E 014°22'0 0.0
2016-May-23 20:28N 55°33' E 014°22'0 0.0
2016-May-23 19:22N 55°33' E 014°22'0 0.0
2016-May-23 18:28N 55°33' E 014°22'0 0.0
2016-May-23 17:28N 55°33' E 014°22'0 0.0
2016-May-23 16:28N 55°33' E 014°22'0 0.0
2016-May-23 15:28N 55°33' E 014°22'3 3.0
2016-May-23 14:32N 55°34' E 014°26'7 7.0
2016-May-23 13:33N 55°31' E 014°38'6 5.6
2016-May-23 12:32N 55°29' E 014°47'2 2.2
2016-May-23 11:33N 55°29' E 014°43'1 0.6
2016-May-23 10:33N 55°29' E 014°44'3 2.7
2016-May-23 09:32N 55°29' E 014°49'3 2.8
2016-May-23 08:32N 55°28' E 014°53'1 1.1
2016-May-23 07:10N 55°28' E 014°51'2 2.8
2016-May-23 06:34N 55°28' E 014°48'3 2.8
2016-May-23 05:31N 55°28' E 014°43'3 2.8
2016-May-23 04:33N 55°27' E 014°38'3 3.0
2016-May-23 03:33N 55°28' E 014°33'8 7.5
2016-May-23 02:33N 55°33' E 014°23'1 0.9
2016-May-23 01:33N 55°33' E 014°22'0 0.0
2016-May-23 00:33N 55°33' E 014°22'0 0.0
2016-May-22 23:33N 55°33' E 014°22'0 0.0
2016-May-22 22:33N 55°33' E 014°22'0 0.0
2016-May-22 21:21N 55°33' E 014°22'0 0.0
2016-May-22 20:33N 55°33' E 014°22'0 0.0
2016-May-22 19:33N 55°33' E 014°22'0 0.0
2016-May-22 18:33N 55°33' E 014°22'0 0.0
2016-May-22 17:27N 55°33' E 014°22'0 0.0
2016-May-22 16:33N 55°33' E 014°22'0 0.0
2016-May-22 15:15N 55°33' E 014°22'0 0.0
2016-May-22 14:33N 55°33' E 014°22'0 0.0
2016-May-22 13:33N 55°33' E 014°22'0 0.0
2016-May-22 12:33N 55°33' E 014°22'0 0.0
2016-May-22 11:33N 55°33' E 014°22'0 0.0
2016-May-22 10:33N 55°33' E 014°22'0 0.0
2016-May-22 09:33N 55°33' E 014°22'0 0.0
2016-May-22 08:33N 55°33' E 014°22'0 0.0
2016-May-22 07:33N 55°33' E 014°22'0 0.0
2016-May-22 06:33N 55°33' E 014°22'0 0.0
2016-May-22 05:33N 55°33' E 014°22'0 0.0
2016-May-22 04:33N 55°33' E 014°22'0 0.0
2016-May-22 03:33N 55°33' E 014°22'0 0.0
2016-May-22 02:33N 55°33' E 014°22'0 0.0
2016-May-22 01:21N 55°33' E 014°22'0 0.0
2016-May-22 00:21N 55°33' E 014°22'0 0.0
2016-May-21 23:33N 55°33' E 014°22'0 0.0
2016-May-21 22:33N 55°33' E 014°22'0 0.0
2016-May-21 21:33N 55°33' E 014°22'0 0.0
2016-May-21 20:33N 55°33' E 014°22'0 0.0
2016-May-21 19:33N 55°33' E 014°22'0 0.0
2016-May-21 18:33N 55°33' E 014°22'0 0.0
2016-May-21 17:33N 55°33' E 014°22'0 0.0
2016-May-21 16:33N 55°33' E 014°22'0 0.0
2016-May-21 15:33N 55°33' E 014°22'0 0.0
2016-May-21 14:09N 55°33' E 014°22'0 0.0
2016-May-21 13:33N 55°33' E 014°22'0 0.0
2016-May-21 12:27N 55°33' E 014°22'0 0.0
2016-May-21 11:27N 55°33' E 014°22'0 0.0
2016-May-21 10:33N 55°33' E 014°22'0 0.0
2016-May-21 09:33N 55°33' E 014°22'0 0.0
2016-May-21 08:33N 55°33' E 014°22'0 0.0
2016-May-21 07:21N 55°33' E 014°22'0 0.0
2016-May-21 06:21N 55°33' E 014°22'0 0.0
2016-May-21 05:33N 55°33' E 014°22'0 0.0
2016-May-21 04:21N 55°33' E 014°22'0 0.0
2016-May-21 03:33N 55°33' E 014°22'0 0.0
2016-May-21 02:21N 55°33' E 014°22'0 0.0
2016-May-21 01:09N 55°33' E 014°22'0 0.0
2016-May-21 00:33N 55°33' E 014°22'0 0.0
2016-May-20 23:33N 55°33' E 014°22'0 0.0
2016-May-20 22:33N 55°33' E 014°22'0 0.0
2016-May-20 21:27N 55°33' E 014°22'0 0.0
2016-May-20 20:33N 55°33' E 014°22'0 0.0
2016-May-20 19:33N 55°33' E 014°22'0 0.0
2016-May-20 18:33N 55°33' E 014°22'0 0.0
2016-May-20 17:33N 55°33' E 014°22'0 0.0
2016-May-20 16:27N 55°33' E 014°22'0 0.0
2016-May-20 15:33N 55°33' E 014°22'0 0.0
2016-May-20 14:33N 55°33' E 014°22'0 0.0
2016-May-20 13:27N 55°33' E 014°22'0 0.0
2016-May-20 12:33N 55°33' E 014°22'0 0.0
2016-May-20 11:33N 55°33' E 014°22'0 0.0
2016-May-20 10:27N 55°33' E 014°22'0 0.0
2016-May-20 09:33N 55°33' E 014°22'0 0.0
2016-May-20 08:33N 55°33' E 014°22'0 0.0
2016-May-20 07:27N 55°33' E 014°22'0 0.0
2016-May-20 06:33N 55°33' E 014°22'0 0.0
2016-May-20 04:33N 55°33' E 014°22'0 0.0
2016-May-20 03:27N 55°33' E 014°22'0 0.0
2016-May-20 02:27N 55°33' E 014°22'0 0.0
2016-May-20 01:33N 55°33' E 014°22'0 0.0
2016-May-20 00:33N 55°33' E 014°22'0 0.0
2016-May-19 23:33N 55°33' E 014°22'0 0.0
2016-May-19 22:33N 55°33' E 014°22'0 0.0
2016-May-19 21:27N 55°33' E 014°22'0 0.0
2016-May-19 20:27N 55°33' E 014°22'0 0.0
2016-May-19 19:33N 55°33' E 014°22'0 0.0
2016-May-19 18:33N 55°33' E 014°22'2 1.7
2016-May-19 17:31N 55°33' E 014°25'4 4.5
2016-May-19 16:33N 55°30' E 014°31'5 4.7
2016-May-19 15:33N 55°27' E 014°37'2 1.9
2016-May-19 14:33N 55°28' E 014°40'3 2.8
2016-May-19 13:33N 55°29' E 014°44'1 1.3
2016-May-19 12:32N 55°28' E 014°46'3 2.8
2016-May-19 11:32N 55°28' E 014°42'3 2.8
2016-May-19 10:33N 55°27' E 014°37'3 2.7
2016-May-19 09:33N 55°26' E 014°33'2 1.8
2016-May-19 08:32N 55°25' E 014°35'3 2.9
2016-May-19 07:33N 55°25' E 014°41'3 2.7
2016-May-19 06:33N 55°25' E 014°45'2 2.2
2016-May-19 05:33N 55°26' E 014°42'3 3.0
2016-May-19 04:33N 55°26' E 014°37'5 4.7
2016-May-19 03:33N 55°28' E 014°29'7 6.2
2016-May-19 02:30N 55°33' E 014°22'0 0.0
2016-May-19 01:24N 55°33' E 014°22'0 0.0
2016-May-19 00:18N 55°33' E 014°22'0 0.0
2016-May-18 23:30N 55°33' E 014°22'0 0.0
2016-May-18 22:30N 55°33' E 014°22'0 0.0
2016-May-18 21:30N 55°33' E 014°22'0 0.0
2016-May-18 20:06N 55°33' E 014°22'0 0.0
2016-May-18 19:18N 55°33' E 014°22'0 0.0
2016-May-18 18:30N 55°33' E 014°22'0 0.0
2016-May-18 17:30N 55°33' E 014°22'0 0.0
2016-May-18 16:30N 55°33' E 014°22'0 0.0
2016-May-18 15:33N 55°33' E 014°22'0 0.0
2016-May-18 14:28N 55°33' E 014°22'0 0.0
2016-May-18 13:28N 55°33' E 014°22'0 0.0
2016-May-18 12:28N 55°33' E 014°22'0 0.0
2016-May-18 11:04N 55°33' E 014°22'0 0.0
2016-May-18 10:28N 55°33' E 014°22'0 0.0
2016-May-18 09:28N 55°33' E 014°22'0 0.0
2016-May-18 08:28N 55°33' E 014°22'0 0.0
2016-May-18 07:04N 55°33' E 014°22'0 0.0
2016-May-18 06:04N 55°33' E 014°22'0 0.0
2016-May-18 05:28N 55°33' E 014°22'0 0.0
2016-May-18 04:28N 55°33' E 014°22'0 0.0
2016-May-18 03:22N 55°33' E 014°22'0 0.0
2016-May-18 02:28N 55°33' E 014°22'0 0.0
2016-May-18 01:28N 55°33' E 014°22'0 0.0
2016-May-18 00:16N 55°33' E 014°22'0 0.0
2016-May-17 23:16N 55°33' E 014°22'0 0.0
2016-May-17 22:28N 55°33' E 014°22'  

Dump ship's entire track history